createdAt,value
2018-11-21T00:00:53.103Z,29.53
2018-11-21T00:03:21.330Z,34.27
2018-11-21T00:05:49.651Z,35.53
2018-11-21T00:08:17.817Z,29.07
2018-11-21T00:10:46.199Z,34.93
2018-11-21T00:13:14.420Z,31.10
2018-11-21T00:15:42.633Z,30.87
2018-11-21T00:18:10.822Z,33.10
2018-11-21T00:20:39.015Z,30.53
2018-11-21T00:23:07.225Z,32.37
2018-11-21T00:25:35.472Z,32.50
2018-11-21T00:28:03.706Z,26.57
2018-11-21T00:30:32.163Z,28.03
2018-11-21T00:33:00.486Z,29.87
2018-11-21T00:35:28.673Z,30.47
2018-11-21T00:37:56.886Z,28.37
2018-11-21T00:40:25.043Z,32.00
2018-11-21T00:42:53.268Z,28.53
2018-11-21T00:45:21.469Z,30.00
2018-11-21T00:47:50.081Z,33.13
2018-11-21T00:50:18.313Z,35.23
2018-11-21T00:52:46.428Z,32.63
2018-11-21T00:55:17.420Z,31.83
2018-11-21T00:57:45.745Z,32.20
2018-11-21T01:00:13.950Z,33.47
2018-11-21T01:02:42.127Z,30.67
2018-11-21T01:05:10.349Z,30.87
2018-11-21T01:07:38.543Z,35.13
2018-11-21T01:10:06.756Z,35.37
2018-11-21T01:12:35.809Z,34.07
2018-11-21T01:15:04.050Z,30.23
2018-11-21T01:17:32.260Z,30.00
2018-11-21T01:20:00.455Z,33.83
2018-11-21T01:22:28.653Z,35.17
2018-11-21T01:24:56.853Z,30.47
2018-11-21T01:27:25.059Z,33.90
2018-11-21T01:29:53.284Z,31.57
2018-11-21T01:32:21.494Z,32.60
2018-11-21T01:34:49.747Z,31.70
2018-11-21T01:37:17.930Z,37.87
2018-11-21T01:39:46.142Z,32.60
2018-11-21T01:42:14.353Z,32.43
2018-11-21T01:44:42.531Z,36.93
2018-11-21T01:47:10.719Z,30.23
2018-11-21T01:49:38.945Z,38.20
2018-11-21T01:52:07.149Z,31.20
2018-11-21T01:54:35.341Z,28.93
2018-11-21T01:57:03.589Z,31.90
2018-11-21T01:59:31.799Z,32.97
2018-11-21T02:02:00.049Z,28.90
2018-11-21T02:04:28.289Z,31.07
2018-11-21T02:06:56.497Z,33.53
2018-11-21T02:09:24.724Z,28.40
2018-11-21T02:11:52.912Z,33.07
2018-11-21T02:14:21.148Z,34.30
2018-11-21T02:16:49.361Z,33.03
2018-11-21T02:19:17.570Z,30.43
2018-11-21T02:21:45.750Z,30.07
2018-11-21T02:24:13.956Z,28.90
2018-11-21T02:26:42.175Z,28.13
2018-11-21T02:29:10.373Z,32.70
2018-11-21T02:31:38.573Z,27.27
2018-11-21T02:34:06.888Z,24.57
2018-11-21T02:36:35.123Z,30.60
2018-11-21T02:39:03.345Z,26.47
2018-11-21T02:41:31.532Z,31.10
2018-11-21T02:43:59.788Z,32.37
2018-11-21T02:46:27.965Z,29.33
2018-11-21T02:48:56.171Z,28.97
2018-11-21T02:51:24.400Z,27.20
2018-11-21T02:53:52.643Z,32.13
2018-11-21T02:56:20.885Z,28.57
2018-11-21T02:58:49.076Z,25.30
2018-11-21T03:01:17.312Z,33.27
2018-11-21T03:03:45.532Z,26.07
2018-11-21T03:06:13.701Z,28.53
2018-11-21T03:08:41.876Z,31.67
2018-11-21T03:11:10.088Z,29.23
2018-11-21T03:13:38.274Z,25.37
2018-11-21T03:16:06.483Z,29.67
2018-11-21T03:18:34.691Z,30.33
2018-11-21T03:21:02.957Z,31.13
2018-11-21T03:23:31.187Z,26.63
2018-11-21T03:25:59.524Z,30.10
2018-11-21T03:28:27.842Z,29.90
2018-11-21T03:30:56.028Z,32.50
2018-11-21T03:33:24.227Z,32.17
2018-11-21T03:35:52.464Z,30.20
2018-11-21T03:38:20.662Z,31.00
2018-11-21T03:40:48.914Z,27.90
2018-11-21T03:43:17.117Z,29.43
2018-11-21T03:45:45.347Z,30.77
2018-11-21T03:48:13.613Z,31.67
2018-11-21T03:50:41.845Z,32.20
2018-11-21T03:53:10.117Z,35.00
2018-11-21T03:55:38.317Z,31.03
2018-11-21T03:58:06.505Z,29.33
2018-11-21T04:00:34.702Z,32.03
2018-11-21T04:03:02.925Z,35.30
2018-11-21T04:05:31.147Z,26.23
2018-11-21T04:07:59.372Z,30.47
2018-11-21T04:10:27.637Z,34.73
2018-11-21T04:12:55.892Z,29.97
2018-11-21T04:15:24.144Z,32.43
2018-11-21T04:17:52.387Z,29.67
2018-11-21T04:20:20.564Z,28.13
2018-11-21T04:22:48.784Z,30.97
2018-11-21T04:25:17.035Z,31.03
2018-11-21T04:27:45.326Z,28.20
2018-11-21T04:30:13.735Z,27.80
2018-11-21T04:32:42.185Z,32.63
2018-11-21T04:35:10.477Z,31.70
2018-11-21T04:37:38.733Z,31.97
2018-11-21T04:40:07.343Z,35.37
2018-11-21T04:42:35.813Z,35.33
2018-11-21T04:45:04.582Z,30.83
2018-11-21T04:47:32.818Z,34.83
2018-11-21T04:50:01.206Z,33.83
2018-11-21T04:52:29.350Z,28.83
2018-11-21T04:54:57.558Z,37.83
2018-11-21T04:57:25.781Z,29.07
2018-11-21T04:59:53.992Z,31.10
2018-11-21T05:02:22.224Z,35.53
2018-11-21T05:04:50.454Z,34.17
2018-11-21T05:07:18.631Z,37.43
2018-11-21T05:09:46.846Z,32.53
2018-11-21T05:12:15.222Z,26.90
2018-11-21T05:14:43.446Z,27.53
2018-11-21T05:17:17.561Z,29.97
2018-11-21T05:19:45.743Z,31.77
2018-11-21T05:22:13.999Z,31.60
2018-11-21T05:24:42.191Z,33.80
2018-11-21T05:27:10.461Z,32.07
2018-11-21T05:29:38.743Z,29.93
2018-11-21T05:32:26.381Z,34.63
2018-11-21T05:34:54.616Z,28.43
2018-11-21T05:37:22.944Z,28.07
2018-11-21T05:39:51.138Z,32.93
2018-11-21T05:42:19.392Z,28.47
2018-11-21T05:44:47.589Z,29.20
2018-11-21T05:47:15.776Z,35.20
2018-11-21T05:49:43.987Z,38.37
2018-11-21T05:52:12.222Z,29.37
2018-11-21T05:54:40.455Z,30.67
2018-11-21T05:57:08.626Z,35.27
2018-11-21T05:59:36.864Z,35.07
2018-11-21T06:02:05.134Z,28.83
2018-11-21T06:04:33.453Z,30.63
2018-11-21T06:07:01.671Z,34.33
2018-11-21T06:09:29.936Z,29.93
2018-11-21T06:12:00.919Z,29.70
2018-11-21T06:14:29.595Z,35.23
2018-11-21T06:16:57.791Z,33.50
2018-11-21T06:19:27.239Z,30.33
2018-11-21T06:21:54.266Z,31.60
2018-11-21T06:24:22.495Z,26.53
2018-11-21T06:26:59.132Z,30.67
2018-11-21T06:29:27.578Z,35.17
2018-11-21T06:31:55.781Z,30.83
2018-11-21T06:34:29.140Z,31.57
2018-11-21T06:36:55.239Z,29.83
2018-11-21T06:39:26.619Z,37.60
2018-11-21T06:41:54.807Z,33.43
2018-11-21T06:44:23.017Z,30.83
2018-11-21T06:46:51.455Z,30.07
2018-11-21T06:49:19.656Z,31.13
2018-11-21T06:51:47.868Z,32.83
2018-11-21T06:54:16.057Z,32.43
2018-11-21T06:56:44.625Z,30.00
2018-11-21T06:59:12.624Z,33.77
2018-11-21T07:01:40.868Z,28.57
2018-11-21T07:04:09.073Z,29.20
2018-11-21T07:06:37.297Z,32.37
2018-11-21T07:09:09.039Z,32.97
2018-11-21T07:11:37.277Z,30.77
2018-11-21T07:14:07.267Z,36.80
2018-11-21T07:16:34.819Z,37.77
2018-11-21T07:19:03.016Z,34.23
2018-11-21T07:21:31.303Z,36.20
2018-11-21T07:23:59.529Z,33.80
2018-11-21T07:26:27.785Z,39.70
2018-11-21T07:28:56.034Z,32.43
2018-11-21T07:31:24.297Z,31.70
2018-11-21T07:33:52.543Z,32.03
2018-11-21T07:36:20.780Z,30.30
2018-11-21T07:38:49.534Z,33.77
2018-11-21T07:41:17.712Z,35.30
2018-11-21T07:43:45.975Z,36.20
2018-11-21T07:46:14.371Z,31.83
2018-11-21T07:48:42.679Z,33.00
2018-11-21T07:51:10.937Z,33.67
2018-11-21T07:53:39.154Z,34.37
2018-11-21T07:56:58.445Z,31.53
2018-11-21T07:59:26.654Z,35.13
2018-11-21T08:02:00.707Z,33.20
2018-11-21T08:04:38.709Z,33.87
2018-11-21T08:07:35.086Z,32.37
2018-11-21T08:10:12.767Z,30.40
2018-11-21T08:12:58.731Z,26.63
2018-11-21T08:15:45.239Z,31.10
2018-11-21T08:18:31.152Z,36.30
2018-11-21T08:21:07.391Z,29.07
2018-11-21T08:23:55.502Z,26.80
2018-11-21T08:26:35.488Z,28.73
2018-11-21T08:29:03.789Z,34.80
2018-11-21T08:31:32.053Z,28.23
2018-11-21T08:34:00.300Z,34.33
2018-11-21T08:36:28.558Z,32.37
2018-11-21T08:38:58.482Z,36.87
2018-11-21T08:41:26.794Z,32.00
2018-11-21T08:46:23.435Z,33.97
2018-11-21T08:48:51.592Z,29.27
2018-11-21T08:51:19.868Z,30.27
2018-11-21T08:53:48.095Z,33.67
2018-11-21T08:56:16.281Z,32.90
2018-11-21T08:58:44.505Z,34.67
2018-11-21T09:01:12.765Z,32.60
2018-11-21T09:03:40.991Z,29.90
2018-11-21T09:06:09.191Z,31.73
2018-11-21T09:08:56.927Z,32.83
2018-11-21T09:11:27.930Z,35.60
2018-11-21T09:13:56.290Z,32.83
2018-11-21T09:16:24.473Z,33.87
2018-11-21T09:18:52.750Z,29.37
2018-11-21T09:21:20.948Z,26.90
2018-11-21T09:23:49.215Z,33.77
2018-11-21T09:26:17.449Z,31.00
2018-11-21T09:28:45.683Z,28.27
2018-11-21T09:31:14.000Z,33.00
2018-11-21T09:33:42.219Z,30.30
2018-11-21T09:36:10.475Z,30.43
2018-11-21T09:38:38.759Z,28.40
2018-11-21T09:41:07.022Z,30.97
2018-11-21T09:43:35.289Z,33.40
2018-11-21T09:46:03.531Z,30.00
2018-11-21T09:48:34.590Z,32.30
2018-11-21T09:51:02.836Z,30.47
2018-11-21T09:53:33.006Z,34.13
2018-11-21T09:56:01.241Z,30.13
2018-11-21T09:58:31.460Z,30.80
2018-11-21T10:01:36.550Z,28.37
2018-11-21T10:04:04.897Z,31.67
2018-11-21T10:06:35.930Z,31.63
2018-11-21T10:09:08.101Z,29.70
2018-11-21T10:11:37.240Z,35.13
2018-11-21T10:14:06.293Z,27.83
2018-11-21T10:16:34.572Z,30.63
2018-11-21T10:19:03.271Z,33.83
2018-11-21T10:21:35.515Z,32.40
2018-11-21T10:24:03.814Z,30.40
2018-11-21T10:26:32.028Z,29.47
2018-11-21T10:29:00.247Z,29.13
2018-11-21T10:31:28.579Z,32.27
2018-11-21T10:33:56.794Z,32.93
2018-11-21T10:36:25.030Z,32.83
2018-11-21T10:38:53.464Z,30.97
2018-11-21T10:41:21.903Z,31.03
2018-11-21T10:43:50.318Z,27.77
2018-11-21T10:46:18.562Z,27.57
2018-11-21T10:48:46.790Z,33.77
2018-11-21T10:51:15.135Z,31.53
2018-11-21T10:53:43.208Z,33.87
2018-11-21T10:56:11.493Z,32.40
2018-11-21T10:58:39.772Z,30.90
2018-11-21T11:01:14.618Z,30.13
2018-11-21T11:03:49.226Z,31.90
2018-11-21T11:06:35.360Z,29.07
2018-11-21T11:09:21.409Z,28.87
2018-11-21T11:12:08.837Z,31.60
2018-11-21T11:14:55.079Z,32.13
2018-11-21T11:17:59.233Z,34.33
2018-11-21T11:20:40.877Z,29.10
2018-11-21T11:23:37.568Z,25.23
2018-11-21T11:26:24.415Z,23.03
2018-11-21T11:29:11.870Z,24.73
2018-11-21T11:32:08.066Z,28.33
2018-11-21T11:35:04.464Z,24.07
2018-11-21T11:37:51.986Z,19.57
2018-11-21T11:40:48.851Z,23.67
2018-11-21T11:43:35.408Z,20.60
2018-11-21T11:46:25.629Z,22.83
2018-11-21T11:49:11.720Z,22.17
2018-11-21T11:51:57.616Z,22.80
2018-11-21T11:54:45.057Z,21.57
2018-11-21T11:57:35.477Z,20.37
2018-11-21T12:00:29.199Z,24.83
2018-11-21T12:03:15.457Z,21.07
2018-11-21T12:06:08.475Z,24.87
2018-11-21T12:09:14.241Z,24.00
2018-11-21T12:12:10.691Z,26.47
2018-11-21T12:14:58.092Z,24.03
2018-11-21T12:17:46.767Z,21.07
2018-11-21T12:20:46.332Z,22.00
2018-11-21T12:23:32.312Z,22.03
2018-11-21T12:26:21.974Z,23.93
2018-11-21T12:29:21.326Z,19.30
2018-11-21T12:32:20.843Z,20.17
2018-11-21T12:35:08.265Z,25.53
2018-11-21T12:37:54.539Z,18.33
2018-11-21T12:40:40.682Z,20.20
2018-11-21T12:43:17.349Z,24.50
2018-11-21T12:46:03.887Z,22.17
2018-11-21T12:48:41.535Z,22.97
2018-11-21T12:51:38.256Z,21.27
2018-11-21T12:54:24.403Z,24.03
2018-11-21T12:57:10.416Z,23.93
2018-11-21T13:00:09.573Z,21.63
2018-11-21T13:02:57.061Z,25.10
2018-11-21T13:05:36.882Z,23.83
2018-11-21T13:08:39.426Z,20.33
2018-11-21T13:11:25.464Z,19.27
2018-11-21T13:14:16.371Z,21.63
2018-11-21T13:17:18.920Z,19.77
2018-11-21T13:20:24.668Z,20.63
2018-11-21T13:23:30.241Z,24.63
2018-11-21T13:26:16.435Z,24.73
2018-11-21T13:29:10.081Z,21.90
2018-11-21T13:31:56.137Z,21.93
2018-11-21T13:34:32.150Z,21.20
2018-11-21T13:37:08.206Z,21.37
2018-11-21T13:39:55.667Z,25.33
2018-11-21T13:42:30.988Z,28.73
2018-11-21T13:45:10.084Z,28.10
2018-11-21T13:48:09.577Z,25.70
2018-11-21T13:51:05.866Z,26.50
2018-11-21T13:53:51.873Z,23.37
2018-11-21T13:56:20.229Z,23.50
2018-11-21T13:58:48.502Z,24.07
2018-11-21T14:01:16.776Z,21.60
2018-11-21T14:03:44.984Z,23.07
2018-11-21T14:06:13.255Z,22.00
2018-11-21T14:08:41.489Z,22.13
2018-11-21T14:11:09.796Z,18.77
2018-11-21T14:13:38.057Z,21.27
2018-11-21T14:16:06.335Z,19.00
2018-11-21T14:18:34.573Z,17.97
2018-11-21T14:21:03.394Z,20.10
2018-11-21T14:23:31.604Z,17.03
2018-11-21T14:25:59.949Z,17.63
2018-11-21T14:28:28.151Z,21.07
2018-11-21T14:30:56.708Z,16.87
2018-11-21T14:33:24.922Z,19.23
2018-11-21T14:35:56.157Z,17.97
2018-11-21T14:38:21.468Z,25.13
2018-11-21T14:40:49.718Z,27.23
2018-11-21T14:43:17.958Z,37.10
2018-11-21T14:45:46.187Z,32.47
2018-11-21T14:48:14.502Z,30.60
2018-11-21T14:50:42.739Z,33.37
2018-11-21T14:53:11.168Z,37.07
2018-11-21T14:55:39.393Z,34.30
2018-11-21T14:58:07.672Z,37.10
2018-11-21T15:00:35.910Z,42.07
2018-11-21T15:03:04.358Z,39.50
2018-11-21T15:05:32.669Z,36.93
2018-11-21T15:08:01.079Z,36.07
2018-11-21T15:10:29.325Z,40.83
2018-11-21T15:12:57.609Z,42.27
2018-11-21T15:15:25.873Z,41.03
2018-11-21T15:17:54.082Z,41.07
2018-11-21T15:20:23.730Z,42.57
2018-11-21T15:22:51.974Z,43.13
2018-11-21T15:25:21.316Z,42.53
2018-11-21T15:27:53.035Z,38.27
2018-11-21T15:30:23.030Z,37.43
2018-11-21T15:32:51.251Z,37.83
2018-11-21T15:35:19.900Z,44.17
2018-11-21T15:37:48.181Z,42.73
2018-11-21T15:40:17.961Z,42.00
2018-11-21T15:42:46.165Z,39.57
2018-11-21T15:45:15.875Z,37.30
2018-11-21T15:47:44.915Z,40.87
2018-11-21T15:50:14.636Z,43.33
2018-11-21T15:52:42.916Z,35.53
2018-11-21T15:55:12.609Z,39.17
2018-11-21T15:57:40.835Z,41.43
2018-11-21T16:00:14.603Z,38.97
2018-11-21T16:02:43.776Z,38.70
2018-11-21T16:05:12.001Z,37.77
2018-11-21T16:07:40.463Z,41.80
2018-11-21T16:10:14.374Z,41.20
2018-11-21T16:12:39.659Z,36.00
2018-11-21T16:15:13.287Z,42.40
2018-11-21T16:17:41.637Z,39.47
2018-11-21T16:20:11.101Z,41.70
2018-11-21T16:22:39.360Z,34.63
2018-11-21T16:25:09.492Z,36.70
2018-11-21T16:27:38.336Z,34.90
2018-11-21T16:30:09.912Z,36.80
2018-11-21T16:32:38.166Z,33.73
2018-11-21T16:35:08.440Z,39.30
2018-11-21T16:37:35.083Z,37.03
2018-11-21T16:40:03.904Z,41.27
2018-11-21T16:42:32.149Z,35.93
2018-11-21T16:45:00.440Z,39.60
2018-11-21T16:47:28.663Z,38.57
2018-11-21T16:49:56.986Z,43.07
2018-11-21T16:52:25.200Z,42.90
2018-11-21T16:54:53.405Z,42.83
2018-11-21T16:57:21.632Z,42.03
2018-11-21T16:59:49.871Z,43.00
2018-11-21T17:02:18.122Z,45.90
2018-11-21T17:04:46.418Z,45.73
2018-11-21T17:07:14.701Z,45.10
2018-11-21T17:09:44.484Z,39.73
2018-11-21T17:12:13.847Z,42.87
2018-11-21T17:14:42.648Z,43.53
2018-11-21T17:17:10.850Z,46.77
2018-11-21T17:19:39.118Z,44.33
2018-11-21T17:22:07.461Z,41.27
2018-11-21T17:24:35.763Z,44.80
2018-11-21T17:27:03.962Z,36.13
2018-11-21T17:29:32.209Z,45.00
2018-11-21T17:32:00.409Z,42.27
2018-11-21T17:34:28.637Z,42.57
2018-11-21T17:36:56.969Z,46.17
2018-11-21T17:39:25.254Z,42.60
2018-11-21T17:41:53.491Z,41.97
2018-11-21T17:44:21.695Z,41.67
2018-11-21T17:46:50.075Z,47.57
2018-11-21T17:49:18.305Z,42.80
2018-11-21T17:51:46.582Z,50.53
2018-11-21T17:54:14.812Z,44.73
2018-11-21T17:56:43.055Z,53.93
2018-11-21T17:59:11.319Z,49.60
2018-11-21T18:01:39.552Z,43.10
2018-11-21T18:04:08.059Z,56.23
2018-11-21T18:06:36.297Z,49.13
2018-11-21T18:09:08.673Z,50.40
2018-11-21T18:11:36.931Z,53.20
2018-11-21T18:14:05.427Z,54.63
2018-11-21T18:16:34.158Z,60.07
2018-11-21T18:19:02.547Z,49.50
2018-11-21T18:21:30.903Z,50.30
2018-11-21T18:23:59.081Z,50.43
2018-11-21T18:26:27.292Z,56.37
2018-11-21T18:28:55.601Z,61.17
2018-11-21T18:31:23.832Z,49.30
2018-11-21T18:33:52.110Z,52.00
2018-11-21T18:36:20.321Z,52.53
2018-11-21T18:38:48.538Z,50.00
2018-11-21T18:41:16.882Z,40.17
2018-11-21T18:43:45.210Z,50.43
2018-11-21T18:46:13.486Z,54.13
2018-11-21T18:48:41.866Z,53.83
2018-11-21T18:51:09.921Z,48.70
2018-11-21T18:53:40.921Z,54.90
2018-11-21T18:56:33.485Z,56.50
2018-11-21T18:59:26.469Z,47.07
2018-11-21T19:01:54.663Z,56.67
2018-11-21T19:04:22.887Z,62.83
2018-11-21T19:06:51.331Z,56.50
2018-11-21T19:09:19.675Z,53.87
2018-11-21T19:11:47.859Z,54.03
2018-11-21T19:14:16.147Z,50.40
2018-11-21T19:16:46.650Z,41.13
2018-11-21T19:19:18.204Z,51.33
2018-11-21T19:21:46.876Z,49.63
2018-11-21T19:24:15.332Z,54.20
2018-11-21T19:26:43.570Z,52.60
2018-11-21T19:29:11.846Z,53.53
2018-11-21T19:31:40.468Z,48.03
2018-11-21T19:34:08.690Z,42.93
2018-11-21T19:36:36.942Z,50.80
2018-11-21T19:39:10.244Z,50.87
2018-11-21T19:41:38.666Z,51.27
2018-11-21T19:44:07.088Z,53.27
2018-11-21T19:46:35.310Z,49.60
2018-11-21T19:49:03.533Z,52.47
2018-11-21T19:51:31.822Z,48.57
2018-11-21T19:54:00.492Z,60.33
2018-11-21T19:56:28.754Z,58.07
2018-11-21T19:58:57.286Z,57.20
2018-11-21T20:01:25.591Z,60.60
2018-11-21T20:03:53.875Z,52.00
2018-11-21T20:06:22.196Z,55.57
2018-11-21T20:08:50.404Z,49.17
2018-11-21T20:11:19.007Z,51.37
2018-11-21T20:13:50.197Z,48.47
2018-11-21T20:16:18.487Z,56.40
2018-11-21T20:18:46.796Z,50.33
2018-11-21T20:21:17.829Z,52.63
2018-11-21T20:24:05.493Z,53.33
2018-11-21T20:26:33.705Z,56.20
2018-11-21T20:29:01.953Z,47.67
2018-11-21T20:31:30.244Z,57.53
2018-11-21T20:33:58.561Z,48.53
2018-11-21T20:36:27.036Z,57.73
2018-11-21T20:38:55.112Z,62.47
2018-11-21T20:41:23.325Z,51.23
2018-11-21T20:43:51.603Z,47.70
2018-11-21T20:46:22.652Z,52.73
2018-11-21T20:48:50.990Z,53.37
2018-11-21T20:51:19.317Z,49.23
2018-11-21T20:53:47.637Z,49.97
2018-11-21T20:56:16.131Z,51.90
2018-11-21T20:58:44.464Z,48.53
2018-11-21T21:01:12.948Z,54.93
2018-11-21T21:03:41.219Z,56.43
2018-11-21T21:06:09.754Z,60.83
2018-11-21T21:08:38.058Z,53.07
2018-11-21T21:11:08.700Z,53.77
2018-11-21T21:13:37.065Z,52.33
2018-11-21T21:16:05.512Z,53.93
2018-11-21T21:18:33.782Z,49.87
2018-11-21T21:21:01.984Z,56.57
2018-11-21T21:23:32.152Z,52.20
2018-11-21T21:26:00.454Z,48.63
2018-11-21T21:28:28.739Z,62.47
2018-11-21T21:30:57.454Z,45.67
2018-11-21T21:33:25.718Z,51.87
2018-11-21T21:35:53.977Z,47.90
2018-11-21T21:38:23.735Z,46.33
2018-11-21T21:40:50.547Z,54.00
2018-11-21T21:43:18.800Z,47.60
2018-11-21T21:45:47.150Z,48.67
2018-11-21T21:48:15.456Z,56.67
2018-11-21T21:50:43.897Z,52.23
2018-11-21T21:53:12.248Z,53.17
2018-11-21T21:55:40.475Z,45.63
2018-11-21T21:58:08.774Z,46.03
2018-11-21T22:00:37.108Z,45.77
2018-11-21T22:03:05.329Z,47.23
2018-11-21T22:05:34.173Z,55.30
2018-11-21T22:08:02.405Z,43.63
2018-11-21T22:10:30.726Z,54.20
2018-11-21T22:12:59.125Z,56.37
2018-11-21T22:15:28.444Z,49.10
2018-11-21T22:18:21.958Z,49.73
2018-11-21T22:20:50.250Z,52.00
2018-11-21T22:23:18.490Z,50.77
2018-11-21T22:25:46.697Z,49.93
2018-11-21T22:28:15.097Z,54.80
2018-11-21T22:30:43.293Z,51.07
2018-11-21T22:33:11.566Z,50.87
2018-11-21T22:35:40.508Z,57.27
2018-11-21T22:38:08.733Z,58.30
2018-11-21T22:40:37.073Z,57.53
2018-11-21T22:43:05.394Z,49.67
2018-11-21T22:45:33.574Z,49.07
2018-11-21T22:48:01.841Z,44.53
2018-11-21T22:50:30.108Z,48.93
2018-11-21T22:52:58.365Z,51.73
2018-11-21T22:55:27.019Z,57.90
2018-11-21T22:57:55.226Z,51.13
2018-11-21T23:00:39.134Z,61.67
2018-11-21T23:03:07.337Z,41.67
2018-11-21T23:05:37.702Z,48.93
2018-11-21T23:08:03.812Z,53.90
2018-11-21T23:10:32.050Z,51.13
2018-11-21T23:13:00.288Z,49.00
2018-11-21T23:15:28.567Z,51.50
2018-11-21T23:17:56.734Z,62.13
2018-11-21T23:20:24.989Z,56.20
2018-11-21T23:22:53.222Z,49.73
2018-11-21T23:25:21.442Z,49.30
2018-11-21T23:27:49.695Z,50.23
2018-11-21T23:30:18.876Z,49.60
2018-11-21T23:32:47.446Z,58.73
2018-11-21T23:35:16.963Z,55.47
2018-11-21T23:37:45.238Z,48.43
2018-11-21T23:40:14.454Z,52.90
2018-11-21T23:42:44.040Z,51.73
2018-11-21T23:45:13.545Z,47.47
2018-11-21T23:47:42.133Z,54.63
2018-11-21T23:50:11.838Z,47.90
2018-11-21T23:52:40.135Z,54.07
2018-11-21T23:55:13.692Z,52.10
2018-11-21T23:57:41.964Z,49.43
